sensor_id;sensor_type;location;lat;lon;timestamp;pressure;altitude;pressure_sealevel;temperature;humidity
75536;BME280;64119;52.070;20.804;2023-05-19T00:00:57;101586.58;;;10.47;85.72
75536;BME280;64119;52.070;20.804;2023-05-19T00:03:25;101585.44;;;10.46;86.15
75536;BME280;64119;52.070;20.804;2023-05-19T00:05:52;101585.60;;;10.42;86.79
75536;BME280;64119;52.070;20.804;2023-05-19T00:08:22;101585.39;;;10.40;86.24
75536;BME280;64119;52.070;20.804;2023-05-19T00:10:49;101585.99;;;10.37;88.13
75536;BME280;64119;52.070;20.804;2023-05-19T00:13:16;101584.88;;;10.34;87.01
75536;BME280;64119;52.070;20.804;2023-05-19T00:15:43;101584.04;;;10.34;87.76
75536;BME280;64119;52.070;20.804;2023-05-19T00:18:10;101580.36;;;10.32;88.60
75536;BME280;64119;52.070;20.804;2023-05-19T00:20:39;101578.27;;;10.30;86.54
75536;BME280;64119;52.070;20.804;2023-05-19T00:23:05;101577.68;;;10.27;89.02
75536;BME280;64119;52.070;20.804;2023-05-19T00:25:31;101577.75;;;10.25;89.30
75536;BME280;64119;52.070;20.804;2023-05-19T00:27:58;101576.80;;;10.23;87.34
75536;BME280;64119;52.070;20.804;2023-05-19T00:30:25;101574.67;;;10.23;86.33
75536;BME280;64119;52.070;20.804;2023-05-19T00:32:51;101575.82;;;10.22;85.90
75536;BME280;64119;52.070;20.804;2023-05-19T00:35:18;101573.29;;;10.20;85.95
75536;BME280;64119;52.070;20.804;2023-05-19T00:37:45;101573.64;;;10.17;87.17
75536;BME280;64119;52.070;20.804;2023-05-19T00:40:12;101572.31;;;10.10;89.33
75536;BME280;64119;52.070;20.804;2023-05-19T00:42:39;101570.74;;;10.06;88.37
75536;BME280;64119;52.070;20.804;2023-05-19T00:45:07;101569.62;;;10.07;87.96
75536;BME280;64119;52.070;20.804;2023-05-19T00:47:34;101571.51;;;10.08;89.41
75536;BME280;64119;52.070;20.804;2023-05-19T00:50:00;101567.59;;;10.06;88.82
75536;BME280;64119;52.070;20.804;2023-05-19T00:52:27;101567.14;;;10.07;88.63
75536;BME280;64119;52.070;20.804;2023-05-19T00:54:54;101565.38;;;10.07;89.02
75536;BME280;64119;52.070;20.804;2023-05-19T00:57:21;101563.30;;;10.07;89.29
75536;BME280;64119;52.070;20.804;2023-05-19T00:59:47;101560.34;;;10.06;88.77
75536;BME280;64119;52.070;20.804;2023-05-19T01:02:14;101560.25;;;10.07;89.36
75536;BME280;64119;52.070;20.804;2023-05-19T01:04:42;101559.34;;;10.07;88.84
75536;BME280;64119;52.070;20.804;2023-05-19T01:07:10;101559.98;;;10.06;89.22
75536;BME280;64119;52.070;20.804;2023-05-19T01:09:38;101557.26;;;10.05;89.51
75536;BME280;64119;52.070;20.804;2023-05-19T01:12:07;101562.47;;;10.06;89.78
75536;BME280;64119;52.070;20.804;2023-05-19T01:14:33;101558.13;;;10.05;89.50
75536;BME280;64119;52.070;20.804;2023-05-19T01:17:03;101556.84;;;10.04;89.96
75536;BME280;64119;52.070;20.804;2023-05-19T01:31:08;101556.15;;;10.04;89.26
75536;BME280;64119;52.070;20.804;2023-05-19T01:33:40;101551.27;;;10.03;89.75
75536;BME280;64119;52.070;20.804;2023-05-19T01:36:07;101552.47;;;10.02;90.12
75536;BME280;64119;52.070;20.804;2023-05-19T01:38:37;101551.38;;;10.02;89.17
75536;BME280;64119;52.070;20.804;2023-05-19T01:41:05;101552.59;;;10.02;88.65
75536;BME280;64119;52.070;20.804;2023-05-19T01:43:33;101554.02;;;10.04;89.34
75536;BME280;64119;52.070;20.804;2023-05-19T01:46:00;101549.87;;;10.03;89.19
75536;BME280;64119;52.070;20.804;2023-05-19T01:48:28;101549.23;;;10.04;88.49
75536;BME280;64119;52.070;20.804;2023-05-19T01:50:57;101549.70;;;10.05;88.67
75536;BME280;64119;52.070;20.804;2023-05-19T01:53:24;101546.16;;;10.05;88.59
75536;BME280;64119;52.070;20.804;2023-05-19T01:55:53;101542.31;;;10.06;89.02
75536;BME280;64119;52.070;20.804;2023-05-19T01:58:45;101542.30;;;10.06;89.20
75536;BME280;64119;52.070;20.804;2023-05-19T02:01:41;101543.34;;;10.07;89.18
75536;BME280;64119;52.070;20.804;2023-05-19T02:14:54;101542.76;;;10.09;87.71
75536;BME280;64119;52.070;20.804;2023-05-19T02:17:28;101539.64;;;10.08;89.56
75536;BME280;64119;52.070;20.804;2023-05-19T02:19:58;101540.19;;;10.08;89.03
75536;BME280;64119;52.070;20.804;2023-05-19T02:22:25;101541.77;;;10.08;88.73
75536;BME280;64119;52.070;20.804;2023-05-19T02:24:51;101542.50;;;10.10;88.01
75536;BME280;64119;52.070;20.804;2023-05-19T02:27:18;101542.63;;;10.10;87.51
75536;BME280;64119;52.070;20.804;2023-05-19T02:29:44;101545.16;;;10.11;88.03
75536;BME280;64119;52.070;20.804;2023-05-19T02:32:11;101544.32;;;10.11;88.27
75536;BME280;64119;52.070;20.804;2023-05-19T02:34:39;101539.05;;;10.09;87.60
75536;BME280;64119;52.070;20.804;2023-05-19T02:37:07;101542.00;;;10.09;88.55
75536;BME280;64119;52.070;20.804;2023-05-19T02:39:33;101545.18;;;10.09;89.16
75536;BME280;64119;52.070;20.804;2023-05-19T02:42:00;101544.69;;;10.09;89.65
75536;BME280;64119;52.070;20.804;2023-05-19T02:44:26;101544.58;;;10.08;90.25
75536;BME280;64119;52.070;20.804;2023-05-19T02:46:53;101541.39;;;10.07;90.54
75536;BME280;64119;52.070;20.804;2023-05-19T02:49:20;101542.76;;;10.07;89.01
75536;BME280;64119;52.070;20.804;2023-05-19T02:51:46;101539.11;;;10.08;88.37
75536;BME280;64119;52.070;20.804;2023-05-19T02:54:13;101538.71;;;10.09;87.72
75536;BME280;64119;52.070;20.804;2023-05-19T02:56:39;101543.58;;;10.08;88.82
75536;BME280;64119;52.070;20.804;2023-05-19T02:59:06;101539.67;;;10.06;88.79
75536;BME280;64119;52.070;20.804;2023-05-19T03:01:32;101540.86;;;10.07;87.98
75536;BME280;64119;52.070;20.804;2023-05-19T03:03:58;101540.46;;;10.07;87.94
75536;BME280;64119;52.070;20.804;2023-05-19T03:06:25;101541.76;;;10.08;87.21
75536;BME280;64119;52.070;20.804;2023-05-19T03:08:52;101544.27;;;10.08;87.35
75536;BME280;64119;52.070;20.804;2023-05-19T03:11:18;101545.56;;;10.07;88.05
75536;BME280;64119;52.070;20.804;2023-05-19T03:13:44;101546.69;;;10.08;87.56
75536;BME280;64119;52.070;20.804;2023-05-19T03:16:11;101547.89;;;10.09;87.46
75536;BME280;64119;52.070;20.804;2023-05-19T03:18:37;101548.81;;;10.09;89.40
75536;BME280;64119;52.070;20.804;2023-05-19T03:21:04;101543.77;;;10.07;89.77
75536;BME280;64119;52.070;20.804;2023-05-19T03:23:31;101545.89;;;10.08;89.46
75536;BME280;64119;52.070;20.804;2023-05-19T03:25:57;101543.68;;;10.08;89.20
75536;BME280;64119;52.070;20.804;2023-05-19T03:28:23;101548.59;;;10.10;89.44
75536;BME280;64119;52.070;20.804;2023-05-19T03:30:52;101543.30;;;10.10;90.40
75536;BME280;64119;52.070;20.804;2023-05-19T03:33:22;101545.69;;;10.10;91.47
75536;BME280;64119;52.070;20.804;2023-05-19T03:35:49;101546.64;;;10.09;91.07
75536;BME280;64119;52.070;20.804;2023-05-19T03:38:18;101545.07;;;10.09;91.55
75536;BME280;64119;52.070;20.804;2023-05-19T03:40:55;101543.75;;;10.09;91.50
75536;BME280;64119;52.070;20.804;2023-05-19T03:43:21;101541.80;;;10.11;90.77
75536;BME280;64119;52.070;20.804;2023-05-19T03:45:55;101543.52;;;10.14;91.32
75536;BME280;64119;52.070;20.804;2023-05-19T03:48:40;101540.05;;;10.15;92.01
75536;BME280;64119;52.070;20.804;2023-05-19T03:51:31;101545.30;;;10.15;90.97
75536;BME280;64119;52.070;20.804;2023-05-19T03:54:03;101544.45;;;10.15;91.49
75536;BME280;64119;52.070;20.804;2023-05-19T03:56:29;101545.70;;;10.13;92.60
75536;BME280;64119;52.070;20.804;2023-05-19T03:58:56;101545.16;;;10.11;92.49
75536;BME280;64119;52.070;20.804;2023-05-19T04:01:22;101547.12;;;10.11;92.86
75536;BME280;64119;52.070;20.804;2023-05-19T04:03:48;101549.78;;;10.11;92.79
75536;BME280;64119;52.070;20.804;2023-05-19T04:06:15;101547.73;;;10.12;91.59
75536;BME280;64119;52.070;20.804;2023-05-19T04:08:42;101553.80;;;10.15;90.89
75536;BME280;64119;52.070;20.804;2023-05-19T04:11:09;101549.83;;;10.16;92.53
75536;BME280;64119;52.070;20.804;2023-05-19T04:13:36;101550.35;;;10.16;92.64
75536;BME280;64119;52.070;20.804;2023-05-19T04:16:02;101549.13;;;10.16;92.57
75536;BME280;64119;52.070;20.804;2023-05-19T04:18:29;101547.46;;;10.18;91.92
75536;BME280;64119;52.070;20.804;2023-05-19T04:20:55;101550.27;;;10.22;92.26
75536;BME280;64119;52.070;20.804;2023-05-19T04:23:22;101551.92;;;10.25;93.66
75536;BME280;64119;52.070;20.804;2023-05-19T04:25:48;101552.42;;;10.27;93.19
75536;BME280;64119;52.070;20.804;2023-05-19T04:28:15;101550.52;;;10.30;91.49
75536;BME280;64119;52.070;20.804;2023-05-19T04:30:43;101550.95;;;10.34;93.22
75536;BME280;64119;52.070;20.804;2023-05-19T04:33:11;101553.59;;;10.36;93.34
75536;BME280;64119;52.070;20.804;2023-05-19T04:35:38;101550.25;;;10.39;93.09
75536;BME280;64119;52.070;20.804;2023-05-19T04:38:06;101550.00;;;10.41;93.41
75536;BME280;64119;52.070;20.804;2023-05-19T04:40:33;101553.97;;;10.46;93.97
75536;BME280;64119;52.070;20.804;2023-05-19T04:42:59;101556.13;;;10.47;93.67
75536;BME280;64119;52.070;20.804;2023-05-19T04:45:27;101555.10;;;10.48;93.63
75536;BME280;64119;52.070;20.804;2023-05-19T04:47:55;101553.50;;;10.50;93.66
75536;BME280;64119;52.070;20.804;2023-05-19T04:50:23;101552.35;;;10.54;92.69
75536;BME280;64119;52.070;20.804;2023-05-19T04:52:50;101550.38;;;10.56;92.37
75536;BME280;64119;52.070;20.804;2023-05-19T04:55:16;101552.73;;;10.59;92.86
75536;BME280;64119;52.070;20.804;2023-05-19T04:57:43;101553.74;;;10.61;92.15
75536;BME280;64119;52.070;20.804;2023-05-19T05:00:11;101556.67;;;10.63;92.20
75536;BME280;64119;52.070;20.804;2023-05-19T05:02:51;101561.80;;;10.65;93.54
75536;BME280;64119;52.070;20.804;2023-05-19T05:05:19;101559.00;;;10.65;93.20
75536;BME280;64119;52.070;20.804;2023-05-19T05:07:46;101561.53;;;10.68;93.12
75536;BME280;64119;52.070;20.804;2023-05-19T05:10:13;101563.73;;;10.71;93.30
75536;BME280;64119;52.070;20.804;2023-05-19T05:12:40;101558.23;;;10.73;92.69
75536;BME280;64119;52.070;20.804;2023-05-19T05:15:07;101556.81;;;10.74;93.03
75536;BME280;64119;52.070;20.804;2023-05-19T05:17:38;101558.05;;;10.79;93.03
75536;BME280;64119;52.070;20.804;2023-05-19T05:20:05;101552.73;;;10.81;92.96
75536;BME280;64119;52.070;20.804;2023-05-19T05:22:33;101553.27;;;10.84;92.53
75536;BME280;64119;52.070;20.804;2023-05-19T05:25:00;101552.48;;;10.87;91.58
75536;BME280;64119;52.070;20.804;2023-05-19T05:27:27;101556.11;;;10.91;92.40
75536;BME280;64119;52.070;20.804;2023-05-19T05:29:53;101553.80;;;10.91;92.13
75536;BME280;64119;52.070;20.804;2023-05-19T05:32:21;101556.21;;;10.95;91.76
75536;BME280;64119;52.070;20.804;2023-05-19T05:34:49;101554.64;;;10.99;90.45
75536;BME280;64119;52.070;20.804;2023-05-19T05:37:16;101546.02;;;11.04;91.68
75536;BME280;64119;52.070;20.804;2023-05-19T05:39:42;101548.33;;;11.09;91.25
75536;BME280;64119;52.070;20.804;2023-05-19T05:42:09;101545.28;;;11.12;90.89
75536;BME280;64119;52.070;20.804;2023-05-19T05:44:37;101539.81;;;11.15;91.72
75536;BME280;64119;52.070;20.804;2023-05-19T05:47:04;101541.38;;;11.19;91.89
75536;BME280;64119;52.070;20.804;2023-05-19T05:49:31;101541.40;;;11.20;91.40
75536;BME280;64119;52.070;20.804;2023-05-19T05:51:57;101540.98;;;11.21;91.71
75536;BME280;64119;52.070;20.804;2023-05-19T05:54:34;101536.00;;;11.21;92.02
75536;BME280;64119;52.070;20.804;2023-05-19T05:57:01;101533.55;;;11.29;91.30
75536;BME280;64119;52.070;20.804;2023-05-19T05:59:28;101538.78;;;11.37;91.47
75536;BME280;64119;52.070;20.804;2023-05-19T06:01:55;101537.55;;;11.40;92.47
75536;BME280;64119;52.070;20.804;2023-05-19T06:04:22;101535.36;;;11.44;91.94
75536;BME280;64119;52.070;20.804;2023-05-19T06:06:48;101538.95;;;11.53;91.26
75536;BME280;64119;52.070;20.804;2023-05-19T06:09:18;101539.79;;;11.60;91.17
75536;BME280;64119;52.070;20.804;2023-05-19T06:11:45;101543.11;;;11.66;90.23
75536;BME280;64119;52.070;20.804;2023-05-19T06:14:12;101544.28;;;11.67;91.31
75536;BME280;64119;52.070;20.804;2023-05-19T06:17:14;101544.64;;;11.69;91.60
75536;BME280;64119;52.070;20.804;2023-05-19T06:19:40;101546.00;;;11.70;90.75
75536;BME280;64119;52.070;20.804;2023-05-19T06:22:07;101546.69;;;11.68;90.92
75536;BME280;64119;52.070;20.804;2023-05-19T06:24:33;101547.39;;;11.66;91.02
75536;BME280;64119;52.070;20.804;2023-05-19T06:27:02;101550.88;;;11.65;90.32
75536;BME280;64119;52.070;20.804;2023-05-19T06:29:28;101548.05;;;11.62;90.57
75536;BME280;64119;52.070;20.804;2023-05-19T06:31:56;101551.29;;;11.61;90.69
75536;BME280;64119;52.070;20.804;2023-05-19T06:34:24;101549.58;;;11.59;90.23
75536;BME280;64119;52.070;20.804;2023-05-19T06:36:51;101549.98;;;11.57;90.20
75536;BME280;64119;52.070;20.804;2023-05-19T06:39:17;101549.81;;;11.57;90.00
75536;BME280;64119;52.070;20.804;2023-05-19T06:41:44;101547.80;;;11.55;90.04
75536;BME280;64119;52.070;20.804;2023-05-19T06:44:22;101551.71;;;11.54;90.01
75536;BME280;64119;52.070;20.804;2023-05-19T06:46:48;101551.20;;;11.49;90.32
75536;BME280;64119;52.070;20.804;2023-05-19T06:49:15;101550.71;;;11.52;90.40
75536;BME280;64119;52.070;20.804;2023-05-19T06:51:42;101553.77;;;11.57;90.01
75536;BME280;64119;52.070;20.804;2023-05-19T06:54:09;101544.23;;;11.59;90.26
75536;BME280;64119;52.070;20.804;2023-05-19T06:56:41;101548.14;;;11.64;90.33
75536;BME280;64119;52.070;20.804;2023-05-19T06:59:07;101548.69;;;11.69;90.11
75536;BME280;64119;52.070;20.804;2023-05-19T07:01:35;101551.25;;;11.75;90.28
75536;BME280;64119;52.070;20.804;2023-05-19T07:04:02;101549.45;;;11.78;90.47
75536;BME280;64119;52.070;20.804;2023-05-19T07:06:28;101552.20;;;11.79;90.81
75536;BME280;64119;52.070;20.804;2023-05-19T07:08:55;101554.30;;;11.83;90.42
75536;BME280;64119;52.070;20.804;2023-05-19T07:11:22;101557.75;;;11.83;90.01
75536;BME280;64119;52.070;20.804;2023-05-19T07:13:49;101548.91;;;11.86;89.60
75536;BME280;64119;52.070;20.804;2023-05-19T07:16:21;101546.33;;;11.83;89.79
75536;BME280;64119;52.070;20.804;2023-05-19T07:18:48;101538.71;;;11.84;89.69
75536;BME280;64119;52.070;20.804;2023-05-19T07:21:14;101542.02;;;11.86;90.36
75536;BME280;64119;52.070;20.804;2023-05-19T07:23:41;101542.59;;;11.87;90.77
75536;BME280;64119;52.070;20.804;2023-05-19T07:26:07;101541.52;;;11.89;90.69
75536;BME280;64119;52.070;20.804;2023-05-19T07:28:33;101545.05;;;11.94;89.69
75536;BME280;64119;52.070;20.804;2023-05-19T07:31:00;101544.41;;;11.98;89.71
75536;BME280;64119;52.070;20.804;2023-05-19T07:33:26;101544.97;;;12.02;90.68
75536;BME280;64119;52.070;20.804;2023-05-19T07:35:53;101544.19;;;12.05;90.15
75536;BME280;64119;52.070;20.804;2023-05-19T07:38:19;101543.23;;;12.07;90.05
75536;BME280;64119;52.070;20.804;2023-05-19T07:40:46;101545.98;;;12.10;89.33
75536;BME280;64119;52.070;20.804;2023-05-19T07:43:12;101549.98;;;12.09;90.58
75536;BME280;64119;52.070;20.804;2023-05-19T07:45:39;101547.77;;;12.10;90.16
75536;BME280;64119;52.070;20.804;2023-05-19T07:48:05;101550.54;;;12.10;90.08
75536;BME280;64119;52.070;20.804;2023-05-19T07:50:32;101550.50;;;12.07;90.13
75536;BME280;64119;52.070;20.804;2023-05-19T07:52:59;101548.00;;;12.05;89.82
75536;BME280;64119;52.070;20.804;2023-05-19T07:55:25;101550.25;;;12.03;89.95
75536;BME280;64119;52.070;20.804;2023-05-19T07:57:52;101551.39;;;12.03;90.28
75536;BME280;64119;52.070;20.804;2023-05-19T08:00:18;101553.33;;;12.08;90.19
75536;BME280;64119;52.070;20.804;2023-05-19T08:02:45;101548.61;;;12.08;89.74
75536;BME280;64119;52.070;20.804;2023-05-19T08:05:12;101548.97;;;12.08;90.04
75536;BME280;64119;52.070;20.804;2023-05-19T08:07:38;101545.13;;;12.08;90.59
75536;BME280;64119;52.070;20.804;2023-05-19T08:10:05;101546.52;;;12.15;89.50
75536;BME280;64119;52.070;20.804;2023-05-19T08:12:31;101549.11;;;12.14;90.53
75536;BME280;64119;52.070;20.804;2023-05-19T08:15:00;101549.54;;;12.15;89.80
75536;BME280;64119;52.070;20.804;2023-05-19T08:17:29;101552.46;;;12.12;90.44
75536;BME280;64119;52.070;20.804;2023-05-19T08:19:56;101552.13;;;12.15;89.70
75536;BME280;64119;52.070;20.804;2023-05-19T08:22:22;101551.52;;;12.17;89.31
75536;BME280;64119;52.070;20.804;2023-05-19T08:24:48;101550.44;;;12.13;89.35
75536;BME280;64119;52.070;20.804;2023-05-19T08:27:16;101549.40;;;12.19;88.58
75536;BME280;64119;52.070;20.804;2023-05-19T08:29:43;101549.95;;;12.19;88.59
75536;BME280;64119;52.070;20.804;2023-05-19T08:32:09;101551.15;;;12.22;88.47
75536;BME280;64119;52.070;20.804;2023-05-19T08:34:39;101556.05;;;12.24;88.76
75536;BME280;64119;52.070;20.804;2023-05-19T08:37:06;101555.30;;;12.23;88.80
75536;BME280;64119;52.070;20.804;2023-05-19T08:39:32;101555.43;;;12.24;88.82
75536;BME280;64119;52.070;20.804;2023-05-19T08:42:00;101557.45;;;12.26;89.55
75536;BME280;64119;52.070;20.804;2023-05-19T08:44:27;101553.39;;;12.29;89.94
75536;BME280;64119;52.070;20.804;2023-05-19T08:47:00;101553.15;;;12.33;89.00
75536;BME280;64119;52.070;20.804;2023-05-19T08:49:34;101554.17;;;12.34;88.50
75536;BME280;64119;52.070;20.804;2023-05-19T08:52:13;101561.31;;;12.39;88.24
75536;BME280;64119;52.070;20.804;2023-05-19T08:54:52;101554.36;;;12.39;88.75
75536;BME280;64119;52.070;20.804;2023-05-19T08:57:22;101551.30;;;12.40;88.08
75536;BME280;64119;52.070;20.804;2023-05-19T08:59:51;101558.88;;;12.42;87.88
75536;BME280;64119;52.070;20.804;2023-05-19T09:02:17;101559.44;;;12.40;88.49
75536;BME280;64119;52.070;20.804;2023-05-19T09:04:44;101559.32;;;12.39;88.73
75536;BME280;64119;52.070;20.804;2023-05-19T09:07:13;101558.31;;;12.40;88.70
75536;BME280;64119;52.070;20.804;2023-05-19T09:09:41;101556.98;;;12.41;88.49
75536;BME280;64119;52.070;20.804;2023-05-19T09:12:12;101554.91;;;12.45;88.45
75536;BME280;64119;52.070;20.804;2023-05-19T09:14:39;101557.65;;;12.49;87.99
75536;BME280;64119;52.070;20.804;2023-05-19T09:17:05;101559.30;;;12.53;88.46
75536;BME280;64119;52.070;20.804;2023-05-19T09:19:32;101560.41;;;12.59;88.11
75536;BME280;64119;52.070;20.804;2023-05-19T09:22:01;101559.34;;;12.64;88.33
75536;BME280;64119;52.070;20.804;2023-05-19T09:24:28;101557.38;;;12.69;88.69
75536;BME280;64119;52.070;20.804;2023-05-19T09:26:55;101556.92;;;12.74;87.75
75536;BME280;64119;52.070;20.804;2023-05-19T09:29:24;101554.72;;;12.78;87.63
75536;BME280;64119;52.070;20.804;2023-05-19T09:31:52;101554.16;;;12.81;87.63
75536;BME280;64119;52.070;20.804;2023-05-19T09:34:20;101548.88;;;12.86;88.28
75536;BME280;64119;52.070;20.804;2023-05-19T09:36:48;101548.85;;;12.92;87.96
75536;BME280;64119;52.070;20.804;2023-05-19T09:39:15;101552.33;;;13.02;87.52
75536;BME280;64119;52.070;20.804;2023-05-19T09:41:43;101550.98;;;13.09;86.38
75536;BME280;64119;52.070;20.804;2023-05-19T09:44:27;101551.02;;;13.15;86.30
75536;BME280;64119;52.070;20.804;2023-05-19T09:46:55;101557.30;;;13.22;85.94
75536;BME280;64119;52.070;20.804;2023-05-19T09:49:26;101556.45;;;13.25;86.16
75536;BME280;64119;52.070;20.804;2023-05-19T09:51:57;101556.34;;;13.32;86.34
75536;BME280;64119;52.070;20.804;2023-05-19T09:54:25;101552.82;;;13.39;85.95
75536;BME280;64119;52.070;20.804;2023-05-19T09:56:58;101551.97;;;13.45;85.50
75536;BME280;64119;52.070;20.804;2023-05-19T09:59:25;101551.40;;;13.47;85.19
75536;BME280;64119;52.070;20.804;2023-05-19T10:01:53;101549.55;;;13.48;84.86
75536;BME280;64119;52.070;20.804;2023-05-19T10:04:22;101551.45;;;13.50;84.92
75536;BME280;64119;52.070;20.804;2023-05-19T10:06:51;101550.52;;;13.54;85.09
75536;BME280;64119;52.070;20.804;2023-05-19T10:09:22;101552.15;;;13.57;84.65
75536;BME280;64119;52.070;20.804;2023-05-19T10:11:54;101553.02;;;13.57;84.88
75536;BME280;64119;52.070;20.804;2023-05-19T10:14:30;101551.21;;;13.58;84.62
75536;BME280;64119;52.070;20.804;2023-05-19T10:16:57;101549.86;;;13.67;84.87
75536;BME280;64119;52.070;20.804;2023-05-19T10:19:26;101546.44;;;13.75;84.19
75536;BME280;64119;52.070;20.804;2023-05-19T10:21:54;101545.52;;;13.77;83.94
75536;BME280;64119;52.070;20.804;2023-05-19T10:24:21;101537.42;;;13.83;84.26
75536;BME280;64119;52.070;20.804;2023-05-19T10:26:54;101537.93;;;13.87;83.75
75536;BME280;64119;52.070;20.804;2023-05-19T10:29:29;101533.69;;;13.91;83.48
75536;BME280;64119;52.070;20.804;2023-05-19T10:32:00;101532.25;;;13.88;83.69
75536;BME280;64119;52.070;20.804;2023-05-19T10:40:26;101524.90;;;13.88;83.37
75536;BME280;64119;52.070;20.804;2023-05-19T10:45:46;101529.48;;;13.96;82.69
75536;BME280;64119;52.070;20.804;2023-05-19T10:48:14;101526.28;;;13.98;83.32
75536;BME280;64119;52.070;20.804;2023-05-19T10:50:51;101523.35;;;14.04;83.06
75536;BME280;64119;52.070;20.804;2023-05-19T10:53:18;101521.67;;;14.08;82.14
75536;BME280;64119;52.070;20.804;2023-05-19T10:55:54;101522.14;;;14.16;82.38
75536;BME280;64119;52.070;20.804;2023-05-19T11:01:15;101522.46;;;14.25;82.28
75536;BME280;64119;52.070;20.804;2023-05-19T11:03:53;101523.23;;;14.34;82.39
75536;BME280;64119;52.070;20.804;2023-05-19T11:06:26;101526.92;;;14.37;82.26
75536;BME280;64119;52.070;20.804;2023-05-19T11:08:56;101529.21;;;14.46;82.07
75536;BME280;64119;52.070;20.804;2023-05-19T11:11:23;101528.85;;;14.49;80.94
75536;BME280;64119;52.070;20.804;2023-05-19T11:13:53;101527.95;;;14.55;81.34
75536;BME280;64119;52.070;20.804;2023-05-19T11:16:39;101525.30;;;14.47;80.55
75536;BME280;64119;52.070;20.804;2023-05-19T11:19:07;101526.83;;;14.42;80.59
75536;BME280;64119;52.070;20.804;2023-05-19T11:21:50;101527.13;;;14.45;81.02
75536;BME280;64119;52.070;20.804;2023-05-19T11:24:37;101527.16;;;14.48;80.80
75536;BME280;64119;52.070;20.804;2023-05-19T11:29:50;101529.78;;;14.44;81.34
75536;BME280;64119;52.070;20.804;2023-05-19T11:32:19;101526.77;;;14.44;81.03
75536;BME280;64119;52.070;20.804;2023-05-19T11:34:48;101529.00;;;14.42;80.72
75536;BME280;64119;52.070;20.804;2023-05-19T11:37:15;101527.01;;;14.45;80.80
75536;BME280;64119;52.070;20.804;2023-05-19T11:39:44;101531.22;;;14.48;80.92
75536;BME280;64119;52.070;20.804;2023-05-19T11:42:11;101530.84;;;14.53;80.69
75536;BME280;64119;52.070;20.804;2023-05-19T11:44:38;101531.95;;;14.57;80.75
75536;BME280;64119;52.070;20.804;2023-05-19T11:47:06;101532.23;;;14.62;80.54
75536;BME280;64119;52.070;20.804;2023-05-19T11:49:33;101531.05;;;14.69;80.81
75536;BME280;64119;52.070;20.804;2023-05-19T11:51:59;101530.99;;;14.75;80.27
75536;BME280;64119;52.070;20.804;2023-05-19T11:54:31;101531.11;;;14.74;79.76
75536;BME280;64119;52.070;20.804;2023-05-19T11:56:59;101530.92;;;14.76;79.49
75536;BME280;64119;52.070;20.804;2023-05-19T11:59:32;101535.19;;;14.76;80.11
75536;BME280;64119;52.070;20.804;2023-05-19T12:02:14;101534.16;;;14.81;80.35
75536;BME280;64119;52.070;20.804;2023-05-19T12:04:41;101531.19;;;14.88;80.24
75536;BME280;64119;52.070;20.804;2023-05-19T12:07:13;101532.27;;;14.85;79.14
75536;BME280;64119;52.070;20.804;2023-05-19T12:09:44;101535.63;;;14.81;79.77
75536;BME280;64119;52.070;20.804;2023-05-19T12:12:18;101534.97;;;14.77;79.12
75536;BME280;64119;52.070;20.804;2023-05-19T12:14:46;101536.34;;;14.79;79.77
75536;BME280;64119;52.070;20.804;2023-05-19T12:17:14;101541.14;;;14.81;80.14
75536;BME280;64119;52.070;20.804;2023-05-19T12:19:48;101536.98;;;14.80;79.99
75536;BME280;64119;52.070;20.804;2023-05-19T12:22:16;101538.17;;;14.80;79.92
75536;BME280;64119;52.070;20.804;2023-05-19T12:24:43;101537.95;;;14.73;79.27
75536;BME280;64119;52.070;20.804;2023-05-19T12:29:39;101535.29;;;14.57;79.80
75536;BME280;64119;52.070;20.804;2023-05-19T12:32:08;101529.74;;;14.54;80.33
75536;BME280;64119;52.070;20.804;2023-05-19T12:34:36;101532.48;;;14.56;80.16
75536;BME280;64119;52.070;20.804;2023-05-19T12:37:06;101530.23;;;14.57;79.85
75536;BME280;64119;52.070;20.804;2023-05-19T12:39:33;101530.58;;;14.55;80.82
75536;BME280;64119;52.070;20.804;2023-05-19T12:42:06;101532.05;;;14.59;80.81
75536;BME280;64119;52.070;20.804;2023-05-19T12:44:45;101530.66;;;14.62;80.02
75536;BME280;64119;52.070;20.804;2023-05-19T12:47:14;101530.02;;;14.59;80.20
75536;BME280;64119;52.070;20.804;2023-05-19T12:52:22;101527.48;;;14.60;80.41
75536;BME280;64119;52.070;20.804;2023-05-19T12:55:03;101523.03;;;14.63;80.43
75536;BME280;64119;52.070;20.804;2023-05-19T12:57:35;101518.77;;;14.67;80.34
75536;BME280;64119;52.070;20.804;2023-05-19T13:00:07;101521.14;;;14.68;79.96
75536;BME280;64119;52.070;20.804;2023-05-19T13:03:02;101519.55;;;14.74;80.20
75536;BME280;64119;52.070;20.804;2023-05-19T13:05:32;101523.05;;;14.77;79.70
75536;BME280;64119;52.070;20.804;2023-05-19T13:10:25;101527.95;;;14.81;79.89
75536;BME280;64119;52.070;20.804;2023-05-19T13:12:56;101522.30;;;14.83;79.90
75536;BME280;64119;52.070;20.804;2023-05-19T13:15:25;101520.59;;;14.84;80.03
75536;BME280;64119;52.070;20.804;2023-05-19T13:17:53;101519.98;;;14.85;79.82
75536;BME280;64119;52.070;20.804;2023-05-19T13:20:20;101519.99;;;14.86;80.28
75536;BME280;64119;52.070;20.804;2023-05-19T13:22:47;101524.33;;;14.87;79.60
75536;BME280;64119;52.070;20.804;2023-05-19T13:25:14;101522.15;;;14.88;79.63
75536;BME280;64119;52.070;20.804;2023-05-19T13:27:42;101526.14;;;14.88;79.26
75536;BME280;64119;52.070;20.804;2023-05-19T13:30:09;101521.95;;;14.85;79.61
75536;BME280;64119;52.070;20.804;2023-05-19T13:32:36;101524.77;;;14.86;79.17